Time;durP1;ratioP1;P1;durP2;ratioP2;P2;SDS_P1;SDS_P2;PMS_P1;PMS_P2;Temp;Humidity;BMP_temperature;BMP_pressure;BME280_temperature;BME280_humidity;BME280_pressure;Samples;Min_cycle;Max_cycle;Signal;HPM_P1;HPM_P2
2023/06/09 00:01:09;;;;;;;10.60;9.47;;;13.90;99.90;;;-147.95;100.00;61948.03;5030472;28;20921;-75
2023/06/09 00:03:37;;;;;;;11.60;10.40;;;13.70;99.90;;;-147.95;100.00;61948.03;5027057;28;20450;-76
2023/06/09 00:06:04;;;;;;;12.87;10.80;;;13.60;99.90;;;-147.95;100.00;61948.03;5008721;28;20466;-74
2023/06/09 00:08:32;;;;;;;14.43;11.20;;;13.70;99.90;;;-147.95;100.00;61948.03;5027166;28;20714;-76
2023/06/09 00:10:59;;;;;;;12.13;10.90;;;13.80;99.90;;;-147.95;100.00;61948.03;5027746;28;20467;-73
2023/06/09 00:13:27;;;;;;;11.63;10.40;;;13.80;99.90;;;-147.95;100.00;61948.03;5028131;28;20713;-76
2023/06/09 00:15:55;;;;;;;10.60;9.60;;;13.80;99.90;;;-147.95;100.00;61948.03;5010147;28;20513;-77
2023/06/09 00:18:24;;;;;;;10.27;9.27;;;13.80;99.90;;;-147.95;100.00;61948.03;5009780;28;20458;-74
2023/06/09 00:20:51;;;;;;;9.17;8.37;;;13.90;99.90;;;-147.95;100.00;61948.03;5027863;28;20460;-75
2023/06/09 00:23:19;;;;;;;11.33;9.30;;;13.90;99.90;;;-147.95;100.00;61948.03;5026508;28;20524;-74
2023/06/09 00:25:46;;;;;;;10.37;8.97;;;14.00;99.90;;;-147.95;100.00;61948.03;5028068;28;20529;-75
2023/06/09 00:28:13;;;;;;;9.90;9.00;;;13.90;99.90;;;-147.95;100.00;61948.03;5009846;28;20443;-75
2023/06/09 00:30:42;;;;;;;8.83;7.93;;;13.90;99.90;;;-147.95;100.00;61948.03;5009726;28;20650;-75
2023/06/09 00:33:09;;;;;;;8.77;7.87;;;13.90;99.90;;;-147.95;100.00;61948.03;5010325;28;20538;-76
2023/06/09 00:35:36;;;;;;;9.40;7.43;;;13.90;99.90;;;-147.95;100.00;61948.03;5009805;28;20447;-75
2023/06/09 00:38:03;;;;;;;9.47;7.90;;;14.00;99.90;;;-147.95;100.00;61948.03;5027412;28;21008;-76
2023/06/09 00:40:31;;;;;;;8.77;7.97;;;14.10;99.90;;;-147.95;100.00;61948.03;5027422;28;20458;-75
2023/06/09 00:42:59;;;;;;;7.67;6.97;;;14.20;99.90;;;-147.95;100.00;61948.03;5027058;28;20505;-75
2023/06/09 00:45:26;;;;;;;8.50;7.70;;;14.30;99.90;;;-147.95;100.00;61948.03;5025905;28;20463;-76
2023/06/09 00:47:57;;;;;;;8.47;7.57;;;14.30;99.90;;;-147.95;100.00;61948.03;5027432;28;20514;-76
2023/06/09 00:50:24;;;;;;;9.13;6.60;;;14.30;99.90;;;-147.95;100.00;61948.03;5025189;28;20529;-76
2023/06/09 00:52:53;;;;;;;7.67;7.03;;;14.30;99.90;;;-147.95;100.00;61948.03;5027614;28;20451;-75
2023/06/09 00:55:21;;;;;;;8.50;7.70;;;14.30;99.90;;;-147.95;100.00;61948.03;5009266;28;20474;-75
2023/06/09 00:57:55;;;;;;;7.87;7.00;;;14.20;99.90;;;-147.95;100.00;61948.03;5021857;28;20597;-76
2023/06/09 01:00:26;;;;;;;8.70;7.50;;;14.30;99.90;;;-147.95;100.00;61948.03;5026832;28;20450;-76
2023/06/09 01:02:56;;;;;;;8.47;7.67;;;14.30;99.90;;;-147.95;100.00;61948.03;5027894;28;20460;-75
2023/06/09 01:05:23;;;;;;;8.33;7.53;;;14.40;99.90;;;-147.95;100.00;61948.03;5009004;28;21050;-74
2023/06/09 01:07:57;;;;;;;8.23;7.40;;;14.40;99.90;;;-147.95;100.00;61948.03;5027132;28;21229;-76
2023/06/09 01:10:34;;;;;;;8.20;7.47;;;14.40;99.90;;;-147.95;100.00;61948.03;5026112;28;20451;-76
2023/06/09 01:13:15;;;;;;;9.53;7.83;;;14.40;99.90;;;-147.95;100.00;61948.03;5009309;28;20491;-74
2023/06/09 01:15:48;;;;;;;9.83;8.83;;;14.30;99.90;;;-147.95;100.00;61948.03;5010710;28;20470;-74
2023/06/09 01:18:17;;;;;;;9.40;8.50;;;14.30;99.90;;;-147.95;100.00;61948.03;5029059;28;20454;-75
2023/06/09 01:20:53;;;;;;;7.97;7.23;;;14.20;99.90;;;-147.95;100.00;61948.03;5013562;28;20527;-74
2023/06/09 01:23:33;;;;;;;8.60;7.70;;;14.30;99.90;;;-147.95;100.00;61948.03;5010780;28;20451;-74
2023/06/09 01:26:02;;;;;;;9.07;8.23;;;14.30;99.90;;;-147.95;100.00;61948.03;5009017;28;20536;-72
2023/06/09 01:28:30;;;;;;;8.40;7.57;;;14.30;99.90;;;-147.95;100.00;61948.03;5026783;28;20891;-75
2023/06/09 01:30:59;;;;;;;8.53;7.73;;;14.30;99.90;;;-147.95;100.00;61948.03;5009008;28;21006;-74
2023/06/09 01:33:27;;;;;;;9.47;8.50;;;14.20;99.90;;;-147.95;100.00;61948.03;5009411;28;20522;-74
2023/06/09 01:35:55;;;;;;;8.67;7.87;;;14.20;99.90;;;-147.95;100.00;61948.03;5026619;28;20467;-74
2023/06/09 01:38:25;;;;;;;8.07;7.30;;;14.20;99.90;;;-147.95;100.00;61948.03;5024905;28;20468;-74
2023/06/09 01:40:52;;;;;;;9.20;8.40;;;14.20;99.90;;;-147.95;100.00;61948.03;5025301;28;20972;-75
2023/06/09 01:43:21;;;;;;;10.27;8.40;;;14.20;99.90;;;-147.95;100.00;61948.03;5027210;28;20533;-74
2023/06/09 01:45:48;;;;;;;8.00;7.27;;;14.10;99.90;;;-147.95;100.00;61948.03;5018176;28;20467;-73
2023/06/09 01:48:23;;;;;;;8.93;8.10;;;14.10;99.90;;;-147.95;100.00;61948.03;5026554;28;20923;-74
2023/06/09 01:50:57;;;;;;;8.77;7.97;;;14.10;99.90;;;-147.95;100.00;61948.03;5018688;28;20455;-76
2023/06/09 01:53:29;;;;;;;8.07;7.27;;;14.10;99.90;;;-147.95;100.00;61948.03;5011827;28;20548;-74
2023/06/09 01:56:07;;;;;;;9.07;8.17;;;14.10;99.90;;;-147.95;100.00;61948.03;5026080;28;20466;-75
2023/06/09 01:58:43;;;;;;;8.00;7.37;;;14.10;99.90;;;-147.95;100.00;61948.03;5008243;28;20924;-73
2023/06/09 02:01:15;;;;;;;8.97;7.97;;;14.00;99.90;;;-147.95;100.00;61948.03;5010767;28;20584;-74
2023/06/09 02:03:45;;;;;;;9.03;8.23;;;13.90;99.90;;;-147.95;100.00;61948.03;5025248;28;20466;-73
2023/06/09 02:06:13;;;;;;;9.83;8.60;;;13.90;99.90;;;-147.95;100.00;61948.03;5025738;28;20463;-75
2023/06/09 02:08:42;;;;;;;8.70;7.97;;;14.00;99.90;;;-147.95;100.00;61948.03;5026124;28;20513;-74
2023/06/09 02:11:11;;;;;;;9.40;8.50;;;14.00;99.90;;;-147.95;100.00;61948.03;5025741;28;20464;-74
2023/06/09 02:13:39;;;;;;;9.00;7.80;;;13.90;99.90;;;-147.95;100.00;61948.03;5025311;28;20569;-75
2023/06/09 02:16:07;;;;;;;9.10;8.20;;;13.80;99.90;;;-147.95;100.00;61948.03;5025947;28;20943;-75
2023/06/09 02:18:34;;;;;;;8.60;7.80;;;13.90;99.90;;;-147.95;100.00;61948.03;5006471;28;20547;-75
2023/06/09 02:21:02;;;;;;;8.67;7.87;;;13.90;99.90;;;-147.95;100.00;61948.03;5026165;28;20470;-75
2023/06/09 02:23:29;;;;;;;8.83;7.97;;;13.80;99.90;;;-147.95;100.00;61948.03;5023941;28;20856;-74
2023/06/09 02:25:57;;;;;;;8.80;8.00;;;13.80;99.90;;;-147.95;100.00;61948.03;5025270;28;20460;-75
2023/06/09 02:28:24;;;;;;;8.67;7.87;;;13.80;99.90;;;-147.95;100.00;61948.03;5025636;28;20541;-75
2023/06/09 02:30:52;;;;;;;8.67;7.87;;;13.90;99.90;;;-147.95;100.00;61948.03;5028352;28;20537;-75
2023/06/09 02:33:19;;;;;;;8.43;7.63;;;14.00;99.90;;;-147.95;100.00;61948.03;5012767;28;20487;-75
2023/06/09 02:35:46;;;;;;;9.13;8.23;;;14.00;99.90;;;-147.95;100.00;61948.03;5021483;28;20456;-74
2023/06/09 02:38:14;;;;;;;8.47;7.63;;;14.00;99.90;;;-147.95;100.00;61948.03;5029147;28;20816;-75
2023/06/09 02:40:46;;;;;;;9.87;8.20;;;13.90;99.90;;;-147.95;100.00;61948.03;5029442;28;20971;-74
2023/06/09 02:43:13;;;;;;;8.80;7.90;;;13.90;99.90;;;-147.95;100.00;61948.03;5029736;28;20474;-75
2023/06/09 02:45:40;;;;;;;9.57;8.67;;;14.00;99.90;;;-147.95;100.00;61948.03;5029152;28;20549;-76
2023/06/09 02:48:09;;;;;;;8.40;7.60;;;14.00;99.90;;;-147.95;100.00;61948.03;5011629;28;20458;-74
2023/06/09 02:50:36;;;;;;;8.57;7.77;;;13.90;99.90;;;-147.95;100.00;61948.03;5010009;28;20874;-75
2023/06/09 02:53:03;;;;;;;8.90;8.10;;;14.00;99.90;;;-147.95;100.00;61948.03;5029935;28;20455;-74
2023/06/09 02:55:32;;;;;;;9.80;8.63;;;13.90;99.90;;;-147.95;100.00;61948.03;5028884;28;20506;-74
2023/06/09 02:57:59;;;;;;;8.80;7.90;;;14.00;99.90;;;-147.95;100.00;61948.03;5029209;28;20966;-75
2023/06/09 03:00:26;;;;;;;8.63;7.83;;;14.00;99.90;;;-147.95;100.00;61948.03;5029080;28;20487;-74
2023/06/09 03:02:54;;;;;;;8.80;7.93;;;14.00;99.90;;;-147.95;100.00;61948.03;5029913;28;20550;-74
2023/06/09 03:05:24;;;;;;;8.43;7.70;;;14.00;99.90;;;-147.95;100.00;61948.03;5028564;28;20473;-74
2023/06/09 03:07:51;;;;;;;8.47;7.70;;;13.90;99.90;;;-147.95;100.00;61948.03;5029176;28;20496;-74
2023/06/09 03:10:19;;;;;;;9.07;8.27;;;13.90;99.90;;;-147.95;100.00;61948.03;5011126;28;20483;-74
2023/06/09 03:12:46;;;;;;;10.87;9.60;;;14.00;99.90;;;-147.95;100.00;61948.03;5027918;28;20458;-74
2023/06/09 03:15:15;;;;;;;10.30;8.77;;;14.00;99.90;;;-147.95;100.00;61948.03;5028972;28;20571;-76
2023/06/09 03:17:43;;;;;;;10.23;9.07;;;14.00;99.90;;;-147.95;100.00;61948.03;5027437;28;20478;-75
2023/06/09 03:20:11;;;;;;;10.50;9.43;;;14.10;99.90;;;-147.95;100.00;61948.03;5027379;28;20534;-77
2023/06/09 03:22:40;;;;;;;11.37;9.63;;;14.00;99.90;;;-147.95;100.00;61948.03;5010469;28;20463;-73
2023/06/09 03:25:08;;;;;;;11.20;8.97;;;13.90;99.90;;;-147.95;100.00;61948.03;5025620;28;20458;-74
2023/06/09 03:27:36;;;;;;;9.90;8.90;;;13.80;99.90;;;-147.95;100.00;61948.03;5028067;28;20447;-75
2023/06/09 03:30:03;;;;;;;11.70;10.20;;;13.80;99.90;;;-147.95;100.00;61948.03;5029093;28;21191;-74
2023/06/09 03:32:31;;;;;;;11.60;9.40;;;13.90;99.90;;;-147.95;100.00;61948.03;5029098;28;20481;-73
2023/06/09 03:34:58;;;;;;;11.07;9.97;;;13.90;99.90;;;-147.95;100.00;61948.03;5029619;28;20661;-75
2023/06/09 03:37:25;;;;;;;10.03;8.83;;;13.90;99.90;;;-147.95;100.00;61948.03;5025822;28;20459;-75
2023/06/09 03:39:53;;;;;;;11.03;9.93;;;13.70;99.90;;;-147.95;100.00;61948.03;5027632;28;21127;-75
2023/06/09 03:42:20;;;;;;;9.70;8.70;;;13.60;99.90;;;-147.95;100.00;61948.03;5027829;28;20487;-74
2023/06/09 03:44:47;;;;;;;9.57;8.77;;;13.50;99.90;;;-147.95;100.00;61948.03;5021798;28;20497;-74
2023/06/09 03:47:15;;;;;;;10.10;9.17;;;13.50;99.90;;;-147.95;100.00;61948.03;5023409;28;20478;-73
2023/06/09 03:49:42;;;;;;;10.53;9.53;;;13.50;99.90;;;-147.95;100.00;61948.03;5029011;28;20502;-75
2023/06/09 03:52:09;;;;;;;10.50;9.50;;;13.50;99.90;;;-147.95;100.00;61948.03;5027992;28;20490;-76
2023/06/09 03:54:36;;;;;;;11.23;10.20;;;13.50;99.90;;;-147.95;100.00;61948.03;5028915;28;20581;-76
2023/06/09 03:57:06;;;;;;;11.80;10.60;;;13.50;99.90;;;-147.95;100.00;61948.03;5017396;28;20510;-76
2023/06/09 03:59:33;;;;;;;9.67;8.73;;;13.40;99.90;;;-147.95;100.00;61948.03;5028453;28;20955;-75
2023/06/09 04:02:00;;;;;;;11.47;10.20;;;13.40;99.90;;;-147.95;100.00;61948.03;5031979;28;20582;-75
2023/06/09 04:04:27;;;;;;;12.10;10.90;;;13.40;99.90;;;-147.95;100.00;61948.03;5010599;28;20556;-75
2023/06/09 04:06:56;;;;;;;12.10;10.90;;;13.40;99.90;;;-147.95;100.00;61948.03;5027437;28;20560;-73
2023/06/09 04:09:23;;;;;;;11.40;10.30;;;13.40;99.90;;;-147.95;100.00;61948.03;5029049;28;20454;-75
2023/06/09 04:11:50;;;;;;;12.00;10.77;;;13.40;99.90;;;-147.95;100.00;61948.03;5028564;28;20938;-76
2023/06/09 04:14:19;;;;;;;11.37;10.27;;;13.40;99.90;;;-147.95;100.00;61948.03;5029457;28;20511;-75
2023/06/09 04:16:46;;;;;;;14.17;11.40;;;13.40;99.90;;;-147.95;100.00;61948.03;5027467;28;20455;-74
2023/06/09 04:19:14;;;;;;;12.23;10.93;;;13.50;99.90;;;-147.95;100.00;61948.03;5028271;28;20507;-74
2023/06/09 04:21:42;;;;;;;11.50;10.23;;;13.60;99.90;;;-147.95;100.00;61948.03;5025502;28;20510;-74
2023/06/09 04:24:10;;;;;;;11.10;10.03;;;13.60;99.90;;;-147.95;100.00;61948.03;5010364;28;21095;-73
2023/06/09 04:26:39;;;;;;;12.30;11.00;;;13.70;99.90;;;-147.95;100.00;61948.03;5009811;28;20653;-75
2023/06/09 04:29:09;;;;;;;11.07;9.97;;;13.80;99.90;;;-147.95;100.00;61948.03;5025865;28;20500;-75
2023/06/09 04:31:42;;;;;;;12.57;11.20;;;13.90;99.90;;;-147.95;100.00;61948.03;5009464;28;20542;-74
2023/06/09 04:34:10;;;;;;;11.70;10.50;;;14.00;99.90;;;-147.95;100.00;61948.03;5022444;28;20979;-74
2023/06/09 04:36:38;;;;;;;12.37;10.90;;;14.10;99.90;;;-147.95;100.00;61948.03;5025608;28;20738;-73
2023/06/09 04:39:07;;;;;;;12.10;10.90;;;14.20;99.90;;;-147.95;100.00;61948.03;5027095;28;20483;-74
2023/06/09 04:41:34;;;;;;;13.07;11.70;;;14.30;99.90;;;-147.95;100.00;61948.03;5026866;28;20938;-75
2023/06/09 04:44:04;;;;;;;11.10;10.03;;;14.40;99.90;;;-147.95;100.00;61948.03;5027654;28;20478;-74
2023/06/09 04:46:31;;;;;;;12.07;10.97;;;14.50;99.90;;;-147.95;100.00;61948.03;5008827;28;20503;-73
2023/06/09 04:49:08;;;;;;;16.53;10.70;;;14.40;99.90;;;-147.95;100.00;61948.03;5027046;28;20572;-74
2023/06/09 04:51:46;;;;;;;12.63;11.43;;;14.40;99.90;;;-147.95;100.00;61948.03;5024961;28;20468;-74
2023/06/09 04:54:14;;;;;;;12.90;11.50;;;14.50;99.90;;;-147.95;100.00;61948.03;5009749;28;20832;-73
2023/06/09 04:56:43;;;;;;;12.67;11.43;;;14.50;99.90;;;-147.95;100.00;61948.03;5008946;28;20446;-74
2023/06/09 04:59:12;;;;;;;11.20;10.10;;;14.60;99.90;;;-147.95;100.00;61948.03;5009775;28;20463;-74
2023/06/09 05:01:40;;;;;;;12.57;11.30;;;14.80;99.90;;;-147.95;100.00;61948.03;5025507;28;20447;-73
2023/06/09 05:04:09;;;;;;;12.20;11.00;;;15.00;99.90;;;-147.95;100.00;61948.03;5009348;28;20964;-74
2023/06/09 05:06:37;;;;;;;12.07;10.67;;;15.10;98.80;;;-147.95;100.00;61948.03;5026565;28;20464;-73
2023/06/09 05:09:07;;;;;;;13.40;11.97;;;15.20;98.60;;;-147.95;100.00;61948.03;5026727;28;20547;-76
2023/06/09 05:11:34;;;;;;;13.87;12.40;;;15.30;97.50;;;-147.95;100.00;61948.03;5026307;28;20455;-76
2023/06/09 05:14:01;;;;;;;12.63;11.30;;;15.40;96.20;;;-147.95;100.00;61948.03;5009189;28;20442;-73
2023/06/09 05:16:29;;;;;;;11.60;10.50;;;15.60;96.20;;;-147.95;100.00;61948.03;5026399;28;20959;-73
2023/06/09 05:18:57;;;;;;;13.00;11.60;;;15.90;95.80;;;-147.95;100.00;61948.03;5025247;28;20472;-76
2023/06/09 05:21:27;;;;;;;11.87;10.67;;;16.30;93.40;;;-147.95;100.00;61948.03;5007073;28;20460;-75
2023/06/09 05:23:54;;;;;;;11.10;10.00;;;17.30;91.80;;;-147.95;100.00;61948.03;5027229;28;21004;-75
2023/06/09 05:26:22;;;;;;;10.53;9.53;;;18.90;88.40;;;-147.95;100.00;61948.03;5008476;28;20573;-75
2023/06/09 05:28:50;;;;;;;10.60;9.60;;;19.50;86.10;;;-147.95;100.00;61948.03;5001425;28;20639;-74
2023/06/09 05:31:17;;;;;;;9.77;8.97;;;19.80;85.10;;;-147.95;100.00;61948.03;5025011;28;20484;-77
2023/06/09 05:33:45;;;;;;;11.87;9.63;;;19.30;84.90;;;-147.95;100.00;61948.03;5027177;28;20553;-76
2023/06/09 05:36:13;;;;;;;10.87;9.70;;;18.80;85.30;;;-147.95;100.00;61948.03;5026219;28;20490;-74
2023/06/09 05:38:41;;;;;;;10.73;9.63;;;18.50;85.40;;;-147.95;100.00;61948.03;5026675;28;20806;-75
2023/06/09 05:41:09;;;;;;;9.80;8.90;;;18.30;85.80;;;-147.95;100.00;61948.03;5026311;28;20828;-76
2023/06/09 05:43:36;;;;;;;11.57;10.50;;;18.10;86.30;;;-147.95;100.00;61948.03;5026942;28;20558;-75
2023/06/09 05:46:03;;;;;;;10.60;9.63;;;18.10;86.70;;;-147.95;100.00;61948.03;5024573;28;21130;-73
2023/06/09 05:48:30;;;;;;;10.90;9.90;;;18.10;86.80;;;-147.95;100.00;61948.03;5026238;28;20469;-76
2023/06/09 05:50:58;;;;;;;10.73;9.73;;;18.00;87.10;;;-147.95;100.00;61948.03;5026325;28;20496;-75
2023/06/09 05:53:25;;;;;;;10.83;9.50;;;17.90;87.50;;;-147.95;100.00;61948.03;5026445;28;20455;-75
2023/06/09 05:55:54;;;;;;;11.83;10.63;;;17.70;88.00;;;-147.95;100.00;61948.03;5024676;28;20470;-75
2023/06/09 05:58:22;;;;;;;10.60;9.60;;;17.70;88.80;;;-147.95;100.00;61948.03;5026290;28;20473;-73
2023/06/09 06:00:49;;;;;;;10.30;9.40;;;18.60;87.90;;;-147.95;100.00;61948.03;5027037;28;20470;-77
2023/06/09 06:03:16;;;;;;;10.13;9.17;;;19.10;85.90;;;-147.95;100.00;61948.03;5034515;28;20469;-76
2023/06/09 06:05:45;;;;;;;9.70;8.80;;;19.10;85.90;;;-147.95;100.00;61948.03;5030473;28;20511;-78
2023/06/09 06:08:12;;;;;;;10.63;9.53;;;19.30;85.50;;;-147.95;100.00;61948.03;5030245;28;21302;-77
2023/06/09 06:10:39;;;;;;;9.40;8.60;;;20.00;84.60;;;-147.95;100.00;61948.03;5028801;28;20465;-77
2023/06/09 06:13:08;;;;;;;9.50;8.60;;;20.60;83.60;;;-147.95;100.00;61948.03;5030448;28;20471;-77
2023/06/09 06:15:35;;;;;;;9.30;8.50;;;21.40;81.90;;;-147.95;100.00;61948.03;5028307;28;20480;-78
2023/06/09 06:18:03;;;;;;;8.10;7.40;;;22.20;80.20;;;-147.95;100.00;61948.03;5028753;28;20458;-77
2023/06/09 06:20:31;;;;;;;9.27;8.57;;;23.00;77.00;;;-147.95;100.00;61948.03;5028515;28;20468;-78
2023/06/09 06:22:58;;;;;;;7.80;7.10;;;23.40;74.10;;;-147.95;100.00;61948.03;5012645;28;20565;-77
2023/06/09 06:25:28;;;;;;;8.00;7.20;;;24.40;71.90;;;-147.95;100.00;61948.03;5029667;28;20457;-78
2023/06/09 06:27:57;;;;;;;10.77;7.77;;;24.90;68.10;;;-147.95;100.00;61948.03;5029179;28;20952;-77
2023/06/09 06:30:28;;;;;;;7.33;6.73;;;24.80;66.30;;;-147.95;100.00;61948.03;5029335;28;20487;-78
2023/06/09 06:32:56;;;;;;;9.10;8.23;;;23.30;68.60;;;-147.95;100.00;61948.03;5012106;28;20464;-79
2023/06/09 06:35:25;;;;;;;8.13;7.40;;;21.90;72.40;;;-147.95;100.00;61948.03;5011273;28;20481;-78
2023/06/09 06:37:52;;;;;;;6.67;6.07;;;21.20;75.50;;;-147.95;100.00;61948.03;5011938;28;20452;-78
2023/06/09 06:40:19;;;;;;;6.30;5.80;;;20.60;73.90;;;-147.95;100.00;61948.03;5011462;28;20826;-77
2023/06/09 06:42:47;;;;;;;9.73;6.60;;;20.40;74.90;;;-147.95;100.00;61948.03;5028724;28;21098;-76
2023/06/09 06:45:15;;;;;;;7.20;6.50;;;20.00;76.00;;;-147.95;100.00;61948.03;5028401;28;20471;-78
2023/06/09 06:47:45;;;;;;;7.10;6.40;;;19.70;76.80;;;-147.95;100.00;61948.03;5029298;28;20462;-76
2023/06/09 06:50:13;;;;;;;7.10;6.50;;;19.80;78.10;;;-147.95;100.00;61948.03;5011462;28;20458;-77
2023/06/09 06:52:40;;;;;;;6.57;5.97;;;20.00;76.90;;;-147.95;100.00;61948.03;5029872;28;20468;-78
2023/06/09 06:55:08;;;;;;;7.10;6.50;;;19.90;75.70;;;-147.95;100.00;61948.03;5011470;28;20474;-75
2023/06/09 06:57:36;;;;;;;8.67;7.07;;;19.90;76.10;;;-147.95;100.00;61948.03;5011436;28;20467;-76
2023/06/09 07:00:09;;;;;;;7.23;6.40;;;19.90;76.00;;;-147.95;100.00;61948.03;5028735;28;21226;-74
2023/06/09 07:02:36;;;;;;;7.97;7.07;;;20.10;76.30;;;-147.95;100.00;61948.03;5014625;28;20448;-74
2023/06/09 07:05:06;;;;;;;6.40;5.87;;;20.50;76.50;;;-147.95;100.00;61948.03;5015966;28;20528;-74
2023/06/09 07:07:34;;;;;;;6.50;5.97;;;20.70;74.70;;;-147.95;100.00;61948.03;5015891;28;20469;-77
2023/06/09 07:10:01;;;;;;;5.97;5.47;;;21.20;74.30;;;-147.95;100.00;61948.03;5031106;28;20465;-74
2023/06/09 07:12:28;;;;;;;7.17;6.57;;;21.50;72.00;;;-147.95;100.00;61948.03;5029906;28;20470;-77
2023/06/09 07:14:56;;;;;;;5.77;5.27;;;21.80;71.40;;;-147.95;100.00;61948.03;5029612;28;20520;-77
2023/06/09 07:17:24;;;;;;;6.30;5.70;;;21.80;71.30;;;-147.95;100.00;61948.03;5028157;28;20973;-75
2023/06/09 07:19:51;;;;;;;6.70;6.10;;;21.60;70.60;;;-147.95;100.00;61948.03;5011684;28;20452;-77
2023/06/09 07:22:20;;;;;;;6.70;6.10;;;21.60;69.80;;;-147.95;100.00;61948.03;5028573;28;20489;-76
2023/06/09 07:24:48;;;;;;;7.00;6.40;;;21.50;69.80;;;-147.95;100.00;61948.03;5029289;28;20465;-79
2023/06/09 07:27:15;;;;;;;7.23;6.57;;;21.60;69.80;;;-147.95;100.00;61948.03;5028289;28;20454;-78
2023/06/09 07:29:43;;;;;;;7.17;6.43;;;21.90;70.00;;;-147.95;100.00;61948.03;5028102;28;20473;-77
2023/06/09 07:32:11;;;;;;;5.90;5.40;;;21.70;69.20;;;-147.95;100.00;61948.03;5027954;28;21043;-78
2023/06/09 07:34:38;;;;;;;6.87;6.27;;;21.80;68.80;;;-147.95;100.00;61948.03;5029268;28;20478;-77
2023/06/09 07:37:06;;;;;;;6.90;6.20;;;22.00;69.60;;;-147.95;100.00;61948.03;5010140;28;20470;-77
2023/06/09 07:39:38;;;;;;;6.90;6.37;;;22.00;69.20;;;-147.95;100.00;61948.03;5027583;28;21346;-77
2023/06/09 07:42:06;;;;;;;9.60;6.93;;;22.00;69.10;;;-147.95;100.00;61948.03;5028426;28;20460;-77
2023/06/09 07:44:34;;;;;;;5.60;5.20;;;22.20;69.30;;;-147.95;100.00;61948.03;5029302;28;20463;-78
2023/06/09 07:47:01;;;;;;;7.50;6.13;;;22.40;69.40;;;-147.95;100.00;61948.03;5026343;28;20469;-74
2023/06/09 07:49:28;;;;;;;6.90;6.20;;;22.50;68.80;;;-147.95;100.00;61948.03;5027188;28;20981;-81
2023/06/09 07:51:55;;;;;;;6.80;6.20;;;22.50;69.10;;;-147.95;100.00;61948.03;5028388;28;20474;-80
2023/06/09 07:54:23;;;;;;;7.60;6.90;;;22.50;69.10;;;-147.95;100.00;61948.03;5028676;28;20473;-75
2023/06/09 07:56:51;;;;;;;6.87;5.17;;;22.70;69.30;;;-147.95;100.00;61948.03;5027466;28;20560;-77
2023/06/09 07:59:19;;;;;;;6.13;5.63;;;22.80;69.20;;;-147.95;100.00;61948.03;5028898;28;20458;-76
2023/06/09 08:01:46;;;;;;;6.70;6.00;;;22.70;69.10;;;-147.95;100.00;61948.03;5025591;28;21009;-78
2023/06/09 08:04:14;;;;;;;6.37;5.77;;;22.80;68.30;;;-147.95;100.00;61948.03;5007761;28;20522;-77
2023/06/09 08:06:42;;;;;;;6.40;5.80;;;22.70;67.80;;;-147.95;100.00;61948.03;5009610;28;20471;-78
2023/06/09 08:09:10;;;;;;;6.87;5.80;;;22.60;67.70;;;-147.95;100.00;61948.03;5028697;28;20493;-77
2023/06/09 08:11:38;;;;;;;6.47;5.53;;;22.70;67.80;;;-147.95;100.00;61948.03;5025836;28;20477;-79
2023/06/09 08:14:07;;;;;;;5.80;5.30;;;22.70;68.20;;;-147.95;100.00;61948.03;5010362;28;20466;-77
2023/06/09 08:16:35;;;;;;;6.23;5.63;;;22.70;68.60;;;-147.95;100.00;61948.03;5027262;28;20485;-77
2023/06/09 08:19:03;;;;;;;6.90;6.40;;;22.80;68.90;;;-147.95;100.00;61948.03;5027298;28;20475;-78
2023/06/09 08:21:31;;;;;;;7.30;6.70;;;22.80;69.70;;;-147.95;100.00;61948.03;5025944;28;20516;-77
2023/06/09 08:23:58;;;;;;;6.83;6.23;;;22.90;68.40;;;-147.95;100.00;61948.03;5010448;28;20463;-78
2023/06/09 08:26:25;;;;;;;6.43;5.83;;;22.70;68.10;;;-147.95;100.00;61948.03;5026017;28;20454;-77
2023/06/09 08:28:52;;;;;;;6.60;6.07;;;22.90;67.40;;;-147.95;100.00;61948.03;5028002;28;20455;-78
2023/06/09 08:31:21;;;;;;;5.70;5.20;;;23.20;66.10;;;-147.95;100.00;61948.03;5027425;28;20516;-77
2023/06/09 08:33:49;;;;;;;6.40;5.80;;;23.30;65.70;;;-147.95;100.00;61948.03;5029067;28;20473;-77
2023/06/09 08:36:16;;;;;;;5.67;5.17;;;23.40;65.90;;;-147.95;100.00;61948.03;5013931;28;20520;-78
2023/06/09 08:38:43;;;;;;;8.30;6.10;;;23.40;65.90;;;-147.95;100.00;61948.03;5027735;28;20470;-77
2023/06/09 08:41:11;;;;;;;5.53;5.13;;;23.40;66.30;;;-147.95;100.00;61948.03;5025132;28;20455;-77
2023/06/09 08:43:39;;;;;;;5.70;5.20;;;23.50;65.50;;;-147.95;100.00;61948.03;5028048;28;20456;-78
2023/06/09 08:46:08;;;;;;;5.97;5.43;;;23.40;64.50;;;-147.95;100.00;61948.03;5026083;28;20475;-77
2023/06/09 08:48:40;;;;;;;5.67;5.13;;;23.70;64.10;;;-147.95;100.00;61948.03;5009361;28;20813;-79
2023/06/09 08:51:09;;;;;;;5.27;4.77;;;23.80;64.40;;;-147.95;100.00;61948.03;5025630;28;21035;-79
2023/06/09 08:53:37;;;;;;;5.90;5.27;;;24.00;64.30;;;-147.95;100.00;61948.03;5010052;28;20545;-78
2023/06/09 08:56:05;;;;;;;5.73;5.23;;;24.00;63.40;;;-147.95;100.00;61948.03;5025262;28;20466;-78
2023/06/09 08:58:33;;;;;;;5.47;5.07;;;23.80;62.80;;;-147.95;100.00;61948.03;5026803;28;20556;-79
2023/06/09 09:01:01;;;;;;;5.33;4.60;;;23.40;62.70;;;-147.95;100.00;61948.03;5025405;28;20458;-78
2023/06/09 09:03:28;;;;;;;5.27;4.87;;;23.60;62.60;;;-147.95;100.00;61948.03;5009591;28;20827;-78
2023/06/09 09:05:58;;;;;;;5.57;5.17;;;23.80;61.80;;;-147.95;100.00;61948.03;5026633;28;21006;-77
2023/06/09 09:08:25;;;;;;;5.90;5.40;;;23.90;62.00;;;-147.95;100.00;61948.03;5026939;28;20520;-78
2023/06/09 09:10:52;;;;;;;6.87;5.17;;;23.90;61.40;;;-147.95;100.00;61948.03;5025573;28;20459;-77
2023/06/09 09:13:24;;;;;;;5.60;5.17;;;23.90;61.60;;;-147.95;100.00;61948.03;5025507;28;20495;-77
2023/06/09 09:15:52;;;;;;;5.40;4.90;;;24.00;61.70;;;-147.95;100.00;61948.03;5026195;28;20485;-78
2023/06/09 09:18:20;;;;;;;5.50;5.10;;;23.70;61.10;;;-147.95;100.00;61948.03;5026567;28;20463;-79
2023/06/09 09:20:47;;;;;;;5.57;5.07;;;23.70;61.60;;;-147.95;100.00;61948.03;5026301;28;20477;-76
2023/06/09 09:23:16;;;;;;;5.27;4.77;;;23.80;61.10;;;-147.95;100.00;61948.03;5025804;28;20518;-77
2023/06/09 09:25:44;;;;;;;5.97;5.47;;;23.70;61.00;;;-147.95;100.00;61948.03;5026488;28;20467;-77
2023/06/09 09:28:13;;;;;;;5.20;4.80;;;23.90;60.70;;;-147.95;100.00;61948.03;5028632;28;20465;-77
2023/06/09 09:30:49;;;;;;;5.80;5.30;;;24.00;60.70;;;-147.95;100.00;61948.03;5027124;28;20967;-76
2023/06/09 09:33:21;;;;;;;5.70;5.20;;;24.30;60.70;;;-147.95;100.00;61948.03;5027858;28;20823;-77
2023/06/09 09:35:50;;;;;;;5.50;4.90;;;24.50;60.30;;;-147.95;100.00;61948.03;5023487;28;20586;-77
2023/06/09 09:38:24;;;;;;;5.40;4.90;;;24.50;60.50;;;-147.95;100.00;61948.03;5027005;28;20479;-79
2023/06/09 09:40:53;;;;;;;5.60;5.20;;;24.60;60.10;;;-147.95;100.00;61948.03;5026684;28;20948;-77
2023/06/09 09:43:22;;;;;;;5.47;4.97;;;24.80;59.40;;;-147.95;100.00;61948.03;5009256;28;20440;-78
2023/06/09 09:45:52;;;;;;;5.23;4.77;;;24.80;58.50;;;-147.95;100.00;61948.03;5008761;28;20496;-78
2023/06/09 09:48:23;;;;;;;5.63;5.13;;;24.50;58.00;;;-147.95;100.00;61948.03;5008863;28;20576;-77
2023/06/09 09:50:52;;;;;;;5.60;5.17;;;24.60;58.50;;;-147.95;100.00;61948.03;5025922;28;20460;-77
2023/06/09 09:53:24;;;;;;;5.37;4.97;;;24.80;57.60;;;-147.95;100.00;61948.03;5041890;28;20461;-74
2023/06/09 09:55:54;;;;;;;5.17;4.77;;;24.80;57.30;;;-147.95;100.00;61948.03;5036999;28;20455;-73
2023/06/09 09:58:30;;;;;;;5.10;4.70;;;25.00;57.20;;;-147.95;100.00;61948.03;5041403;28;20464;-75
2023/06/09 10:01:00;;;;;;;4.80;4.40;;;25.20;56.90;;;-147.95;100.00;61948.03;5027298;28;20454;-78
2023/06/09 10:03:28;;;;;;;5.73;5.23;;;25.20;57.30;;;-147.95;100.00;61948.03;5030458;28;20675;-76